createdAt,value
2022-08-17T00:01:09.585Z,66.67
2022-08-17T00:06:16.642Z,66.75
2022-08-17T00:11:22.587Z,66.89
2022-08-17T00:16:55.505Z,67.17
2022-08-17T00:22:33.752Z,67.25
2022-08-17T00:27:24.352Z,67.24
2022-08-17T00:33:13.692Z,67.61
2022-08-17T00:37:50.614Z,67.54
2022-08-17T00:42:54.688Z,67.86
2022-08-17T00:47:57.770Z,67.88
2022-08-17T00:53:00.514Z,68.13
2022-08-17T00:58:05.923Z,68.23
2022-08-17T01:03:11.988Z,68.08
2022-08-17T01:08:16.377Z,68.06
2022-08-17T01:13:20.765Z,68.04
2022-08-17T01:18:23.807Z,68.65
2022-08-17T01:23:28.809Z,68.62
2022-08-17T01:28:53.155Z,68.83
2022-08-17T01:33:58.251Z,68.77
2022-08-17T01:39:02.427Z,68.72
2022-08-17T01:44:07.415Z,68.85
2022-08-17T01:49:12.577Z,69.38
2022-08-17T01:54:18.807Z,69.39
2022-08-17T01:59:21.580Z,69.43
2022-08-17T02:04:24.470Z,69.72
2022-08-17T02:09:30.575Z,69.90
2022-08-17T02:14:34.058Z,70.01
2022-08-17T02:19:36.750Z,69.93
2022-08-17T02:25:00.784Z,70.12
2022-08-17T02:30:04.121Z,70.42
2022-08-17T02:35:26.818Z,70.28
2022-08-17T02:40:35.726Z,70.16
2022-08-17T02:45:39.645Z,70.36
2022-08-17T02:50:42.353Z,70.48
2022-08-17T02:55:46.456Z,70.58
2022-08-17T03:00:49.484Z,70.46
2022-08-17T03:05:53.116Z,70.48
2022-08-17T03:10:57.467Z,70.63
2022-08-17T03:16:00.274Z,70.99
2022-08-17T03:21:04.288Z,71.46
2022-08-17T03:26:12.336Z,71.03
2022-08-17T03:31:18.614Z,70.97
2022-08-17T03:36:21.426Z,71.03
2022-08-17T03:41:25.543Z,70.96
2022-08-17T03:46:42.209Z,70.68
2022-08-17T03:52:02.330Z,70.88
2022-08-17T03:57:08.546Z,70.78
2022-08-17T04:02:13.123Z,70.96
2022-08-17T04:07:15.858Z,71.02
2022-08-17T04:12:21.777Z,70.98
2022-08-17T04:17:26.162Z,71.27
2022-08-17T04:22:31.402Z,71.37
2022-08-17T04:27:38.105Z,71.22
2022-08-17T04:33:00.649Z,71.07
2022-08-17T04:38:13.160Z,70.90
2022-08-17T04:43:19.455Z,70.60
2022-08-17T04:48:22.459Z,70.61
2022-08-17T04:53:25.343Z,70.39
2022-08-17T04:58:29.552Z,70.18
2022-08-17T05:03:32.307Z,70.07
2022-08-17T05:08:35.032Z,70.31
2022-08-17T05:13:39.095Z,70.09
2022-08-17T05:18:41.801Z,70.04
2022-08-17T05:23:46.132Z,70.25
2022-08-17T05:29:02.614Z,69.94
2022-08-17T05:34:05.634Z,69.81
2022-08-17T05:39:08.303Z,69.66
2022-08-17T05:44:20.089Z,69.81
2022-08-17T05:49:27.451Z,69.42
2022-08-17T05:54:39.445Z,68.88
2022-08-17T05:59:51.878Z,68.96
2022-08-17T06:05:05.826Z,69.18
2022-08-17T06:10:14.604Z,68.87
2022-08-17T06:15:30.979Z,69.08
2022-08-17T06:20:38.939Z,68.33
2022-08-17T06:25:46.109Z,68.02
2022-08-17T06:31:00.743Z,67.50
2022-08-17T06:36:11.514Z,67.27
2022-08-17T06:41:24.273Z,67.41
2022-08-17T06:46:32.415Z,67.20
2022-08-17T06:51:39.478Z,66.81
2022-08-17T06:56:53.511Z,66.42
2022-08-17T07:02:04.813Z,65.48
2022-08-17T07:07:24.289Z,65.20
2022-08-17T07:12:29.577Z,64.85
2022-08-17T07:17:47.845Z,65.06
2022-08-17T07:22:59.800Z,65.16
2022-08-17T07:28:06.930Z,65.13
2022-08-17T07:33:14.336Z,64.72
2022-08-17T07:38:25.485Z,64.58
2022-08-17T07:43:31.189Z,64.40
2022-08-17T07:48:39.154Z,63.87
2022-08-17T07:53:42.388Z,63.76
2022-08-17T07:58:47.413Z,63.39
2022-08-17T08:03:52.782Z,62.83
2022-08-17T08:08:56.903Z,62.46
2022-08-17T08:14:29.276Z,62.15
2022-08-17T08:19:34.746Z,61.55
2022-08-17T08:24:52.916Z,60.96
2022-08-17T08:30:02.851Z,60.98
2022-08-17T08:35:10.222Z,60.64
2022-08-17T08:40:27.842Z,60.25
2022-08-17T08:45:42.285Z,59.82
2022-08-17T08:50:49.241Z,59.51
2022-08-17T08:55:56.344Z,58.56
2022-08-17T09:00:59.797Z,58.52
2022-08-17T09:06:28.679Z,57.98
2022-08-17T09:12:02.303Z,57.80
2022-08-17T09:17:09.139Z,57.48
2022-08-17T09:22:25.708Z,57.02
2022-08-17T09:27:32.061Z,56.49
2022-08-17T09:32:38.985Z,55.62
2022-08-17T09:37:51.141Z,54.94
2022-08-17T09:42:56.984Z,55.16
2022-08-17T09:48:04.923Z,54.56
2022-08-17T09:53:09.347Z,53.98
2022-08-17T09:58:18.526Z,53.88
2022-08-17T10:03:34.328Z,53.55
2022-08-17T10:08:43.326Z,52.73
2022-08-17T10:13:53.417Z,52.28
2022-08-17T10:19:04.444Z,51.38
2022-08-17T10:24:30.660Z,50.92
2022-08-17T10:29:48.618Z,50.38
2022-08-17T10:35:00.638Z,49.76
2022-08-17T10:40:20.734Z,48.84
2022-08-17T10:45:27.043Z,48.60
2022-08-17T10:50:50.580Z,48.41
2022-08-17T10:56:23.180Z,48.22
2022-08-17T11:02:04.322Z,47.51
2022-08-17T11:07:12.041Z,47.11
2022-08-17T11:12:32.555Z,46.71
2022-08-17T11:18:02.540Z,45.83
2022-08-17T11:23:21.864Z,44.86
2022-08-17T11:28:34.252Z,45.00
2022-08-17T11:33:56.680Z,44.03
2022-08-17T11:39:06.013Z,43.11
2022-08-17T11:44:19.336Z,41.87
2022-08-17T11:49:53.476Z,40.33
2022-08-17T11:55:07.728Z,37.52
2022-08-17T12:00:52.418Z,37.18
2022-08-17T12:06:04.228Z,37.18
2022-08-17T12:11:09.609Z,36.55
2022-08-17T12:16:16.650Z,35.76
2022-08-17T12:21:46.238Z,34.98
2022-08-17T12:26:53.458Z,34.59
2022-08-17T12:31:58.178Z,34.48
2022-08-17T12:37:02.791Z,34.53
2022-08-17T12:42:07.902Z,34.17
2022-08-17T12:47:21.802Z,33.19
2022-08-17T12:52:27.476Z,33.65
2022-08-17T12:57:32.982Z,33.60
2022-08-17T13:02:46.361Z,34.46
2022-08-17T13:07:50.481Z,33.21
2022-08-17T13:12:54.067Z,33.06
2022-08-17T13:18:01.770Z,32.22
2022-08-17T13:23:11.859Z,31.91
2022-08-17T13:28:30.593Z,32.13
2022-08-17T13:33:43.682Z,31.38
2022-08-17T13:38:50.922Z,31.21
2022-08-17T13:43:53.679Z,30.83
2022-08-17T13:49:03.228Z,31.05
2022-08-17T13:54:16.584Z,30.86
2022-08-17T13:59:53.727Z,30.64
2022-08-17T14:04:53.574Z,30.65
2022-08-17T14:09:59.787Z,30.30
2022-08-17T14:15:03.471Z,29.57
2022-08-17T14:20:10.583Z,29.46
2022-08-17T14:25:14.670Z,29.04
2022-08-17T14:30:19.811Z,27.69
2022-08-17T14:35:24.607Z,26.86
2022-08-17T14:40:28.180Z,26.37
2022-08-17T14:45:32.735Z,25.73
2022-08-17T14:50:38.393Z,25.60
2022-08-17T14:55:41.118Z,25.97
2022-08-17T15:00:44.009Z,24.63
2022-08-17T15:05:48.636Z,23.49
2022-08-17T15:10:54.220Z,24.21
2022-08-17T15:15:59.196Z,27.19
2022-08-17T15:21:05.042Z,27.50
2022-08-17T15:26:08.437Z,28.19
2022-08-17T15:31:11.255Z,28.68
2022-08-17T15:36:15.525Z,29.80
2022-08-17T15:41:19.491Z,29.52
2022-08-17T15:46:24.236Z,29.10
2022-08-17T15:51:30.987Z,29.01
2022-08-17T15:56:33.823Z,29.26
2022-08-17T16:03:01.708Z,28.99
2022-08-17T16:07:01.167Z,29.10
2022-08-17T16:12:10.633Z,27.62
2022-08-17T16:17:38.824Z,27.71
2022-08-17T16:22:40.224Z,28.90
2022-08-17T16:27:43.487Z,29.81
2022-08-17T16:32:46.574Z,29.49
2022-08-17T16:37:54.256Z,30.09
2022-08-17T16:42:57.743Z,30.33
2022-08-17T16:48:01.506Z,30.22
2022-08-17T16:53:08.962Z,30.07
2022-08-17T16:58:11.760Z,29.83
2022-08-17T17:03:19.451Z,30.38
2022-08-17T17:08:30.290Z,30.99
2022-08-17T17:13:38.883Z,31.59
2022-08-17T17:18:43.872Z,32.53
2022-08-17T17:23:54.421Z,32.89
2022-08-17T17:29:09.434Z,33.37
2022-08-17T17:34:13.713Z,33.75
2022-08-17T17:39:19.608Z,34.10
2022-08-17T17:44:25.725Z,34.48
2022-08-17T17:49:31.192Z,35.21
2022-08-17T17:54:43.761Z,35.43
2022-08-17T17:59:51.275Z,36.17
2022-08-17T18:05:00.863Z,36.37
2022-08-17T18:10:29.861Z,37.11
2022-08-17T18:15:37.251Z,37.75
2022-08-17T18:20:53.125Z,38.12
2022-08-17T18:25:59.377Z,38.72
2022-08-17T18:31:12.913Z,39.41
2022-08-17T18:36:27.733Z,39.85
2022-08-17T18:41:41.294Z,40.38
2022-08-17T18:46:44.380Z,40.62
2022-08-17T18:51:47.560Z,41.45
2022-08-17T18:56:54.109Z,41.45
2022-08-17T19:02:13.853Z,41.92
2022-08-17T19:07:29.191Z,42.66
2022-08-17T19:12:37.866Z,42.88
2022-08-17T19:17:49.262Z,43.52
2022-08-17T19:22:58.783Z,43.82
2022-08-17T19:28:21.464Z,44.13
2022-08-17T19:33:25.068Z,44.94
2022-08-17T19:38:37.438Z,45.52
2022-08-17T19:43:52.243Z,45.60
2022-08-17T19:49:00.149Z,45.94
2022-08-17T19:54:07.430Z,46.44
2022-08-17T19:59:17.386Z,46.69
2022-08-17T20:04:34.603Z,47.08
2022-08-17T20:09:40.206Z,47.56
2022-08-17T20:14:55.124Z,48.14
2022-08-17T20:20:03.361Z,49.12
2022-08-17T20:25:09.688Z,49.10
2022-08-17T20:30:15.810Z,49.55
2022-08-17T20:35:27.472Z,49.84
2022-08-17T20:40:35.135Z,50.49
2022-08-17T20:46:08.795Z,50.55
2022-08-17T20:51:17.826Z,50.74
2022-08-17T20:56:52.011Z,51.47
2022-08-17T21:02:18.340Z,51.79
2022-08-17T21:07:29.009Z,51.67
2022-08-17T21:12:43.057Z,51.94
2022-08-17T21:17:51.342Z,52.27
2022-08-17T21:23:09.165Z,53.05
2022-08-17T21:28:17.304Z,53.54
2022-08-17T21:33:31.420Z,53.63
2022-08-17T21:38:36.591Z,54.11
2022-08-17T21:43:47.701Z,54.65
2022-08-17T21:48:54.434Z,54.64
2022-08-17T21:53:59.525Z,55.47
2022-08-17T21:59:04.358Z,55.95
2022-08-17T22:04:21.978Z,55.86
2022-08-17T22:09:27.071Z,56.00
2022-08-17T22:14:53.370Z,56.88
2022-08-17T22:20:00.398Z,56.85
2022-08-17T22:25:07.361Z,57.05
2022-08-17T22:30:19.083Z,57.61
2022-08-17T22:35:33.614Z,57.82
2022-08-17T22:40:36.365Z,58.05
2022-08-17T22:45:41.606Z,57.71
2022-08-17T22:50:45.734Z,57.57
2022-08-17T22:56:09.971Z,57.52
2022-08-17T23:01:28.277Z,57.40
2022-08-17T23:06:33.777Z,57.54
2022-08-17T23:11:49.254Z,58.03
2022-08-17T23:16:53.147Z,58.20
2022-08-17T23:21:57.855Z,58.39
2022-08-17T23:27:00.641Z,58.49
2022-08-17T23:32:04.730Z,58.38
2022-08-17T23:37:11.028Z,58.58
2022-08-17T23:42:16.814Z,58.91
2022-08-17T23:47:19.808Z,58.84
2022-08-17T23:52:24.326Z,59.14
2022-08-17T23:57:33.578Z,59.24
